sensor_id;sensor_type;location;lat;lon;timestamp;P1;durP1;ratioP1;P2;durP2;ratioP2
67602;SDS011;54417;47.454;18.918;2023-02-28T00:01:52;11.13;;;6.75;;
67602;SDS011;54417;47.454;18.918;2023-02-28T00:07:16;11.93;;;5.55;;
67602;SDS011;54417;47.454;18.918;2023-02-28T00:12:40;10.32;;;6.95;;
67602;SDS011;54417;47.454;18.918;2023-02-28T00:18:05;10.68;;;5.65;;
67602;SDS011;54417;47.454;18.918;2023-02-28T00:23:29;12.85;;;5.30;;
67602;SDS011;54417;47.454;18.918;2023-02-28T00:28:53;10.05;;;6.15;;
67602;SDS011;54417;47.454;18.918;2023-02-28T00:34:18;8.20;;;5.20;;
67602;SDS011;54417;47.454;18.918;2023-02-28T00:39:42;8.82;;;5.35;;
67602;SDS011;54417;47.454;18.918;2023-02-28T00:45:06;11.48;;;5.07;;
67602;SDS011;54417;47.454;18.918;2023-02-28T00:50:34;13.10;;;5.28;;
67602;SDS011;54417;47.454;18.918;2023-02-28T00:55:58;8.85;;;5.28;;
67602;SDS011;54417;47.454;18.918;2023-02-28T01:01:22;11.73;;;4.97;;
67602;SDS011;54417;47.454;18.918;2023-02-28T01:06:47;8.55;;;4.70;;
67602;SDS011;54417;47.454;18.918;2023-02-28T01:12:11;9.63;;;5.72;;
67602;SDS011;54417;47.454;18.918;2023-02-28T01:17:35;10.65;;;5.13;;
67602;SDS011;54417;47.454;18.918;2023-02-28T01:23:01;7.28;;;5.35;;
67602;SDS011;54417;47.454;18.918;2023-02-28T01:28:25;8.88;;;5.22;;
67602;SDS011;54417;47.454;18.918;2023-02-28T01:33:48;10.05;;;6.30;;
67602;SDS011;54417;47.454;18.918;2023-02-28T01:39:14;10.20;;;5.78;;
67602;SDS011;54417;47.454;18.918;2023-02-28T01:44:58;14.15;;;6.28;;
67602;SDS011;54417;47.454;18.918;2023-02-28T01:50:26;11.32;;;5.93;;
67602;SDS011;54417;47.454;18.918;2023-02-28T01:55:54;12.63;;;6.13;;
67602;SDS011;54417;47.454;18.918;2023-02-28T02:01:18;9.23;;;5.78;;
67602;SDS011;54417;47.454;18.918;2023-02-28T02:06:44;8.10;;;5.60;;
67602;SDS011;54417;47.454;18.918;2023-02-28T02:12:14;9.98;;;6.32;;
67602;SDS011;54417;47.454;18.918;2023-02-28T02:17:51;13.23;;;5.80;;
67602;SDS011;54417;47.454;18.918;2023-02-28T02:35:32;11.27;;;6.18;;
67602;SDS011;54417;47.454;18.918;2023-02-28T02:41:04;8.80;;;5.50;;
67602;SDS011;54417;47.454;18.918;2023-02-28T02:46:37;12.13;;;6.47;;
67602;SDS011;54417;47.454;18.918;2023-02-28T02:52:06;9.45;;;6.10;;
67602;SDS011;54417;47.454;18.918;2023-02-28T02:57:33;9.82;;;6.03;;
67602;SDS011;54417;47.454;18.918;2023-02-28T03:03:01;9.60;;;5.68;;
67602;SDS011;54417;47.454;18.918;2023-02-28T03:08:28;14.40;;;6.28;;
67602;SDS011;54417;47.454;18.918;2023-02-28T03:14:05;10.18;;;5.18;;
67602;SDS011;54417;47.454;18.918;2023-02-28T03:19:52;8.45;;;4.78;;
67602;SDS011;54417;47.454;18.918;2023-02-28T03:25:31;9.48;;;5.30;;
67602;SDS011;54417;47.454;18.918;2023-02-28T03:31:02;7.28;;;4.07;;
67602;SDS011;54417;47.454;18.918;2023-02-28T03:36:32;7.97;;;4.32;;
67602;SDS011;54417;47.454;18.918;2023-02-28T03:42:08;9.32;;;4.40;;
67602;SDS011;54417;47.454;18.918;2023-02-28T03:47:37;6.35;;;4.60;;
67602;SDS011;54417;47.454;18.918;2023-02-28T03:53:06;8.57;;;4.82;;
67602;SDS011;54417;47.454;18.918;2023-02-28T03:58:37;8.70;;;4.50;;
67602;SDS011;54417;47.454;18.918;2023-02-28T04:04:05;8.05;;;4.15;;
67602;SDS011;54417;47.454;18.918;2023-02-28T04:09:29;8.00;;;4.40;;
67602;SDS011;54417;47.454;18.918;2023-02-28T04:14:54;8.07;;;4.18;;
67602;SDS011;54417;47.454;18.918;2023-02-28T04:20:18;6.40;;;4.18;;
67602;SDS011;54417;47.454;18.918;2023-02-28T04:25:42;8.45;;;4.07;;
67602;SDS011;54417;47.454;18.918;2023-02-28T04:31:07;4.93;;;3.80;;
67602;SDS011;54417;47.454;18.918;2023-02-28T04:36:32;10.73;;;4.60;;
67602;SDS011;54417;47.454;18.918;2023-02-28T04:41:56;7.15;;;4.38;;
67602;SDS011;54417;47.454;18.918;2023-02-28T04:47:21;9.38;;;4.10;;
67602;SDS011;54417;47.454;18.918;2023-02-28T04:52:45;9.45;;;4.82;;
67602;SDS011;54417;47.454;18.918;2023-02-28T04:58:09;7.57;;;3.90;;
67602;SDS011;54417;47.454;18.918;2023-02-28T05:03:34;8.60;;;4.63;;
67602;SDS011;54417;47.454;18.918;2023-02-28T05:08:58;8.38;;;4.55;;
67602;SDS011;54417;47.454;18.918;2023-02-28T05:14:22;8.10;;;4.20;;
67602;SDS011;54417;47.454;18.918;2023-02-28T05:19:47;6.88;;;3.97;;
67602;SDS011;54417;47.454;18.918;2023-02-28T05:25:13;7.88;;;4.55;;
67602;SDS011;54417;47.454;18.918;2023-02-28T05:30:40;9.88;;;4.68;;
67602;SDS011;54417;47.454;18.918;2023-02-28T05:36:06;8.23;;;4.28;;
67602;SDS011;54417;47.454;18.918;2023-02-28T05:41:30;8.18;;;4.45;;
67602;SDS011;54417;47.454;18.918;2023-02-28T05:46:54;12.40;;;4.63;;
67602;SDS011;54417;47.454;18.918;2023-02-28T05:52:19;7.82;;;4.78;;
67602;SDS011;54417;47.454;18.918;2023-02-28T05:57:43;6.85;;;4.28;;
67602;SDS011;54417;47.454;18.918;2023-02-28T06:03:07;8.05;;;4.93;;
67602;SDS011;54417;47.454;18.918;2023-02-28T06:08:32;8.25;;;4.47;;
67602;SDS011;54417;47.454;18.918;2023-02-28T06:13:56;10.07;;;5.57;;
67602;SDS011;54417;47.454;18.918;2023-02-28T06:19:22;12.75;;;6.07;;
67602;SDS011;54417;47.454;18.918;2023-02-28T06:24:49;8.05;;;4.97;;
67602;SDS011;54417;47.454;18.918;2023-02-28T06:30:13;7.43;;;4.15;;
67602;SDS011;54417;47.454;18.918;2023-02-28T06:35:37;11.00;;;5.57;;
67602;SDS011;54417;47.454;18.918;2023-02-28T06:41:02;10.75;;;5.25;;
67602;SDS011;54417;47.454;18.918;2023-02-28T06:46:27;8.10;;;4.57;;
67602;SDS011;54417;47.454;18.918;2023-02-28T06:51:52;12.55;;;5.13;;
67602;SDS011;54417;47.454;18.918;2023-02-28T06:57:17;9.70;;;4.97;;
67602;SDS011;54417;47.454;18.918;2023-02-28T07:02:41;8.40;;;4.97;;
67602;SDS011;54417;47.454;18.918;2023-02-28T07:08:05;12.55;;;4.65;;
67602;SDS011;54417;47.454;18.918;2023-02-28T07:13:30;9.18;;;4.38;;
67602;SDS011;54417;47.454;18.918;2023-02-28T07:18:54;7.82;;;4.75;;
67602;SDS011;54417;47.454;18.918;2023-02-28T07:24:18;9.60;;;4.13;;
67602;SDS011;54417;47.454;18.918;2023-02-28T07:29:43;6.72;;;3.35;;
67602;SDS011;54417;47.454;18.918;2023-02-28T07:35:07;5.32;;;3.47;;
67602;SDS011;54417;47.454;18.918;2023-02-28T07:40:32;10.10;;;4.00;;
67602;SDS011;54417;47.454;18.918;2023-02-28T07:45:57;5.57;;;3.50;;
67602;SDS011;54417;47.454;18.918;2023-02-28T07:51:25;5.55;;;3.45;;
67602;SDS011;54417;47.454;18.918;2023-02-28T07:56:49;3.05;;;2.35;;
67602;SDS011;54417;47.454;18.918;2023-02-28T08:02:15;5.05;;;2.78;;
67602;SDS011;54417;47.454;18.918;2023-02-28T08:07:39;6.63;;;3.08;;
67602;SDS011;54417;47.454;18.918;2023-02-28T08:13:03;5.15;;;2.83;;
67602;SDS011;54417;47.454;18.918;2023-02-28T08:18:28;5.88;;;2.85;;
67602;SDS011;54417;47.454;18.918;2023-02-28T08:23:52;6.30;;;2.80;;
67602;SDS011;54417;47.454;18.918;2023-02-28T08:29:16;5.95;;;3.42;;
67602;SDS011;54417;47.454;18.918;2023-02-28T08:34:41;4.75;;;2.90;;
67602;SDS011;54417;47.454;18.918;2023-02-28T08:40:07;3.22;;;2.45;;
67602;SDS011;54417;47.454;18.918;2023-02-28T08:45:31;4.70;;;3.25;;
67602;SDS011;54417;47.454;18.918;2023-02-28T08:50:57;5.10;;;3.05;;
67602;SDS011;54417;47.454;18.918;2023-02-28T08:56:29;7.07;;;3.70;;
67602;SDS011;54417;47.454;18.918;2023-02-28T09:01:53;6.28;;;3.90;;
67602;SDS011;54417;47.454;18.918;2023-02-28T09:07:18;6.20;;;3.47;;
67602;SDS011;54417;47.454;18.918;2023-02-28T09:12:42;5.93;;;3.72;;
67602;SDS011;54417;47.454;18.918;2023-02-28T09:18:08;11.93;;;3.72;;
67602;SDS011;54417;47.454;18.918;2023-02-28T09:23:33;10.57;;;4.13;;
67602;SDS011;54417;47.454;18.918;2023-02-28T09:28:57;8.07;;;3.80;;
67602;SDS011;54417;47.454;18.918;2023-02-28T09:34:21;5.40;;;3.72;;
67602;SDS011;54417;47.454;18.918;2023-02-28T09:39:46;6.32;;;3.97;;
67602;SDS011;54417;47.454;18.918;2023-02-28T09:45:13;9.77;;;4.40;;
67602;SDS011;54417;47.454;18.918;2023-02-28T09:50:45;3.67;;;3.30;;
67602;SDS011;54417;47.454;18.918;2023-02-28T09:56:15;5.03;;;3.95;;
67602;SDS011;54417;47.454;18.918;2023-02-28T10:01:50;8.27;;;4.30;;
67602;SDS011;54417;47.454;18.918;2023-02-28T10:07:20;6.70;;;5.15;;
67602;SDS011;54417;47.454;18.918;2023-02-28T10:13:02;5.40;;;3.95;;
67602;SDS011;54417;47.454;18.918;2023-02-28T10:18:30;7.50;;;3.40;;
67602;SDS011;54417;47.454;18.918;2023-02-28T10:24:02;10.98;;;3.85;;
67602;SDS011;54417;47.454;18.918;2023-02-28T10:29:35;7.25;;;3.97;;
67602;SDS011;54417;47.454;18.918;2023-02-28T10:34:59;7.28;;;3.88;;
67602;SDS011;54417;47.454;18.918;2023-02-28T10:40:31;4.75;;;3.28;;
67602;SDS011;54417;47.454;18.918;2023-02-28T10:46:00;5.20;;;3.90;;
67602;SDS011;54417;47.454;18.918;2023-02-28T10:51:26;4.30;;;3.42;;
67602;SDS011;54417;47.454;18.918;2023-02-28T10:57:08;7.20;;;4.20;;
67602;SDS011;54417;47.454;18.918;2023-02-28T11:02:41;3.33;;;2.57;;
67602;SDS011;54417;47.454;18.918;2023-02-28T11:08:10;3.85;;;3.15;;
67602;SDS011;54417;47.454;18.918;2023-02-28T11:13:37;10.13;;;4.15;;
67602;SDS011;54417;47.454;18.918;2023-02-28T11:19:02;8.20;;;3.80;;
67602;SDS011;54417;47.454;18.918;2023-02-28T11:24:28;7.88;;;3.80;;
67602;SDS011;54417;47.454;18.918;2023-02-28T11:29:57;4.97;;;3.60;;
67602;SDS011;54417;47.454;18.918;2023-02-28T11:35:24;7.72;;;3.30;;
67602;SDS011;54417;47.454;18.918;2023-02-28T11:40:58;9.05;;;3.78;;
67602;SDS011;54417;47.454;18.918;2023-02-28T11:46:38;5.03;;;3.60;;
67602;SDS011;54417;47.454;18.918;2023-02-28T11:52:13;9.68;;;3.88;;
67602;SDS011;54417;47.454;18.918;2023-02-28T11:57:51;6.82;;;3.65;;
67602;SDS011;54417;47.454;18.918;2023-02-28T12:03:25;9.40;;;4.40;;
67602;SDS011;54417;47.454;18.918;2023-02-28T12:09:00;6.80;;;4.57;;
67602;SDS011;54417;47.454;18.918;2023-02-28T12:20:32;11.60;;;4.85;;
67602;SDS011;54417;47.454;18.918;2023-02-28T12:26:02;7.32;;;3.97;;
67602;SDS011;54417;47.454;18.918;2023-02-28T12:31:36;12.18;;;4.45;;
67602;SDS011;54417;47.454;18.918;2023-02-28T12:37:04;8.43;;;4.25;;
67602;SDS011;54417;47.454;18.918;2023-02-28T12:42:33;6.53;;;4.45;;
67602;SDS011;54417;47.454;18.918;2023-02-28T12:53:31;11.45;;;5.03;;
67602;SDS011;54417;47.454;18.918;2023-02-28T12:59:10;10.27;;;4.80;;
67602;SDS011;54417;47.454;18.918;2023-02-28T13:04:41;14.25;;;4.72;;
67602;SDS011;54417;47.454;18.918;2023-02-28T13:10:16;9.60;;;4.65;;
67602;SDS011;54417;47.454;18.918;2023-02-28T13:15:42;6.88;;;4.75;;
67602;SDS011;54417;47.454;18.918;2023-02-28T13:21:24;7.88;;;3.95;;
67602;SDS011;54417;47.454;18.918;2023-02-28T13:27:11;8.00;;;4.93;;
67602;SDS011;54417;47.454;18.918;2023-02-28T13:32:54;8.88;;;4.95;;
67602;SDS011;54417;47.454;18.918;2023-02-28T13:38:45;7.72;;;4.80;;
67602;SDS011;54417;47.454;18.918;2023-02-28T13:44:11;8.38;;;4.60;;
67602;SDS011;54417;47.454;18.918;2023-02-28T13:49:37;7.30;;;4.35;;
67602;SDS011;54417;47.454;18.918;2023-02-28T13:55:21;8.10;;;4.53;;
67602;SDS011;54417;47.454;18.918;2023-02-28T14:00:57;6.03;;;4.38;;
67602;SDS011;54417;47.454;18.918;2023-02-28T14:06:32;9.23;;;3.83;;
67602;SDS011;54417;47.454;18.918;2023-02-28T14:11:57;8.68;;;4.50;;
67602;SDS011;54417;47.454;18.918;2023-02-28T14:17:41;7.45;;;4.30;;
67602;SDS011;54417;47.454;18.918;2023-02-28T14:23:09;5.60;;;3.63;;
67602;SDS011;54417;47.454;18.918;2023-02-28T14:28:43;13.18;;;7.05;;
67602;SDS011;54417;47.454;18.918;2023-02-28T14:34:20;6.55;;;3.80;;
67602;SDS011;54417;47.454;18.918;2023-02-28T14:39:56;6.60;;;3.88;;
67602;SDS011;54417;47.454;18.918;2023-02-28T14:45:21;5.93;;;3.83;;
67602;SDS011;54417;47.454;18.918;2023-02-28T14:50:48;7.55;;;3.97;;
67602;SDS011;54417;47.454;18.918;2023-02-28T14:56:20;5.50;;;4.15;;
67602;SDS011;54417;47.454;18.918;2023-02-28T15:01:45;7.70;;;5.22;;
67602;SDS011;54417;47.454;18.918;2023-02-28T15:07:10;15.50;;;8.30;;
67602;SDS011;54417;47.454;18.918;2023-02-28T15:12:37;10.70;;;4.20;;
67602;SDS011;54417;47.454;18.918;2023-02-28T15:18:03;16.10;;;6.25;;
67602;SDS011;54417;47.454;18.918;2023-02-28T15:23:28;11.60;;;5.78;;
67602;SDS011;54417;47.454;18.918;2023-02-28T15:28:58;9.80;;;4.75;;
67602;SDS011;54417;47.454;18.918;2023-02-28T15:34:26;12.80;;;7.63;;
67602;SDS011;54417;47.454;18.918;2023-02-28T15:40:05;11.68;;;5.25;;
67602;SDS011;54417;47.454;18.918;2023-02-28T15:45:38;46.03;;;14.50;;
67602;SDS011;54417;47.454;18.918;2023-02-28T15:51:06;21.85;;;7.72;;
67602;SDS011;54417;47.454;18.918;2023-02-28T15:56:32;9.65;;;7.22;;
67602;SDS011;54417;47.454;18.918;2023-02-28T16:02:04;8.88;;;5.65;;
67602;SDS011;54417;47.454;18.918;2023-02-28T16:07:37;10.85;;;5.15;;
67602;SDS011;54417;47.454;18.918;2023-02-28T16:13:03;12.05;;;5.35;;
67602;SDS011;54417;47.454;18.918;2023-02-28T16:18:28;46.20;;;16.17;;
67602;SDS011;54417;47.454;18.918;2023-02-28T16:23:52;104.55;;;36.92;;
67602;SDS011;54417;47.454;18.918;2023-02-28T16:29:17;18.95;;;8.48;;
67602;SDS011;54417;47.454;18.918;2023-02-28T16:34:45;56.05;;;17.83;;
67602;SDS011;54417;47.454;18.918;2023-02-28T16:40:13;15.15;;;6.70;;
67602;SDS011;54417;47.454;18.918;2023-02-28T16:45:38;26.73;;;10.95;;
67602;SDS011;54417;47.454;18.918;2023-02-28T16:51:03;36.85;;;16.00;;
67602;SDS011;54417;47.454;18.918;2023-02-28T16:56:27;19.73;;;10.45;;
67602;SDS011;54417;47.454;18.918;2023-02-28T17:01:52;11.48;;;6.55;;
67602;SDS011;54417;47.454;18.918;2023-02-28T17:07:17;13.00;;;6.22;;
67602;SDS011;54417;47.454;18.918;2023-02-28T17:12:41;12.20;;;6.80;;
67602;SDS011;54417;47.454;18.918;2023-02-28T17:18:05;15.13;;;8.73;;
67602;SDS011;54417;47.454;18.918;2023-02-28T17:23:32;11.63;;;7.70;;
67602;SDS011;54417;47.454;18.918;2023-02-28T17:28:56;12.82;;;7.78;;
67602;SDS011;54417;47.454;18.918;2023-02-28T17:34:20;16.20;;;7.40;;
67602;SDS011;54417;47.454;18.918;2023-02-28T17:39:46;10.95;;;7.25;;
67602;SDS011;54417;47.454;18.918;2023-02-28T17:45:10;10.75;;;6.22;;
67602;SDS011;54417;47.454;18.918;2023-02-28T17:50:34;15.88;;;7.70;;
67602;SDS011;54417;47.454;18.918;2023-02-28T17:55:59;13.60;;;7.45;;
67602;SDS011;54417;47.454;18.918;2023-02-28T18:01:23;13.57;;;8.05;;
67602;SDS011;54417;47.454;18.918;2023-02-28T18:06:48;13.90;;;7.75;;
67602;SDS011;54417;47.454;18.918;2023-02-28T18:12:14;17.08;;;9.10;;
67602;SDS011;54417;47.454;18.918;2023-02-28T18:17:38;15.27;;;9.50;;
67602;SDS011;54417;47.454;18.918;2023-02-28T18:23:02;15.82;;;8.65;;
67602;SDS011;54417;47.454;18.918;2023-02-28T18:28:27;16.65;;;9.43;;
67602;SDS011;54417;47.454;18.918;2023-02-28T18:33:51;16.55;;;10.02;;
67602;SDS011;54417;47.454;18.918;2023-02-28T18:39:15;19.73;;;11.43;;
67602;SDS011;54417;47.454;18.918;2023-02-28T18:44:41;24.63;;;13.32;;
67602;SDS011;54417;47.454;18.918;2023-02-28T18:50:05;25.45;;;14.00;;
67602;SDS011;54417;47.454;18.918;2023-02-28T18:55:30;34.53;;;15.50;;
67602;SDS011;54417;47.454;18.918;2023-02-28T19:00:56;25.23;;;14.35;;
67602;SDS011;54417;47.454;18.918;2023-02-28T19:06:20;33.75;;;17.80;;
67602;SDS011;54417;47.454;18.918;2023-02-28T19:11:44;38.30;;;16.65;;
67602;SDS011;54417;47.454;18.918;2023-02-28T19:17:09;30.58;;;15.63;;
67602;SDS011;54417;47.454;18.918;2023-02-28T19:22:35;21.02;;;12.68;;
67602;SDS011;54417;47.454;18.918;2023-02-28T19:27:59;27.70;;;13.57;;
67602;SDS011;54417;47.454;18.918;2023-02-28T19:33:24;20.73;;;12.77;;
67602;SDS011;54417;47.454;18.918;2023-02-28T19:38:48;19.50;;;11.93;;
67602;SDS011;54417;47.454;18.918;2023-02-28T19:44:12;28.65;;;13.40;;
67602;SDS011;54417;47.454;18.918;2023-02-28T19:49:37;22.90;;;12.98;;
67602;SDS011;54417;47.454;18.918;2023-02-28T19:55:01;30.48;;;12.93;;
67602;SDS011;54417;47.454;18.918;2023-02-28T20:00:25;20.73;;;11.10;;
67602;SDS011;54417;47.454;18.918;2023-02-28T20:05:58;18.77;;;10.02;;
67602;SDS011;54417;47.454;18.918;2023-02-28T20:11:23;17.25;;;10.32;;
67602;SDS011;54417;47.454;18.918;2023-02-28T20:16:47;15.68;;;10.20;;
67602;SDS011;54417;47.454;18.918;2023-02-28T20:22:12;17.48;;;10.48;;
67602;SDS011;54417;47.454;18.918;2023-02-28T20:27:36;20.45;;;11.27;;
67602;SDS011;54417;47.454;18.918;2023-02-28T20:33:00;19.85;;;11.23;;
67602;SDS011;54417;47.454;18.918;2023-02-28T20:38:25;20.70;;;10.60;;
67602;SDS011;54417;47.454;18.918;2023-02-28T20:43:52;18.70;;;10.95;;
67602;SDS011;54417;47.454;18.918;2023-02-28T20:49:19;19.35;;;12.13;;
67602;SDS011;54417;47.454;18.918;2023-02-28T20:54:45;23.35;;;11.43;;
67602;SDS011;54417;47.454;18.918;2023-02-28T21:00:09;24.15;;;12.85;;
67602;SDS011;54417;47.454;18.918;2023-02-28T21:05:37;19.73;;;12.48;;
67602;SDS011;54417;47.454;18.918;2023-02-28T21:11:03;23.92;;;13.48;;
67602;SDS011;54417;47.454;18.918;2023-02-28T21:16:29;29.55;;;15.30;;
67602;SDS011;54417;47.454;18.918;2023-02-28T21:21:54;26.88;;;14.93;;
67602;SDS011;54417;47.454;18.918;2023-02-28T21:27:19;26.50;;;14.80;;
67602;SDS011;54417;47.454;18.918;2023-02-28T21:32:43;31.73;;;16.75;;
67602;SDS011;54417;47.454;18.918;2023-02-28T21:38:06;28.40;;;15.45;;
67602;SDS011;54417;47.454;18.918;2023-02-28T21:43:32;27.90;;;15.27;;
67602;SDS011;54417;47.454;18.918;2023-02-28T21:48:56;27.45;;;14.65;;
67602;SDS011;54417;47.454;18.918;2023-02-28T21:54:20;26.13;;;13.73;;
67602;SDS011;54417;47.454;18.918;2023-02-28T21:59:45;27.08;;;15.10;;
67602;SDS011;54417;47.454;18.918;2023-02-28T22:05:09;26.67;;;14.07;;
67602;SDS011;54417;47.454;18.918;2023-02-28T22:10:33;25.27;;;13.13;;
67602;SDS011;54417;47.454;18.918;2023-02-28T22:16:01;30.42;;;14.25;;
67602;SDS011;54417;47.454;18.918;2023-02-28T22:21:26;23.73;;;12.75;;
67602;SDS011;54417;47.454;18.918;2023-02-28T22:26:49;22.73;;;13.63;;
67602;SDS011;54417;47.454;18.918;2023-02-28T22:32:15;24.10;;;12.75;;
67602;SDS011;54417;47.454;18.918;2023-02-28T22:37:39;32.00;;;16.58;;
67602;SDS011;54417;47.454;18.918;2023-02-28T22:43:02;23.55;;;12.43;;
67602;SDS011;54417;47.454;18.918;2023-02-28T22:48:28;27.33;;;13.27;;
67602;SDS011;54417;47.454;18.918;2023-02-28T22:53:52;29.50;;;13.10;;
67602;SDS011;54417;47.454;18.918;2023-02-28T22:59:17;25.75;;;13.82;;
67602;SDS011;54417;47.454;18.918;2023-02-28T23:04:42;26.77;;;13.00;;
67602;SDS011;54417;47.454;18.918;2023-02-28T23:10:06;22.92;;;12.55;;
67602;SDS011;54417;47.454;18.918;2023-02-28T23:15:32;22.15;;;13.50;;
67602;SDS011;54417;47.454;18.918;2023-02-28T23:20:57;22.65;;;11.85;;
67602;SDS011;54417;47.454;18.918;2023-02-28T23:26:22;22.25;;;12.85;;
67602;SDS011;54417;47.454;18.918;2023-02-28T23:31:46;20.92;;;11.98;;
67602;SDS011;54417;47.454;18.918;2023-02-28T23:37:12;20.48;;;12.13;;
67602;SDS011;54417;47.454;18.918;2023-02-28T23:42:36;24.38;;;12.07;;
67602;SDS011;54417;47.454;18.918;2023-02-28T23:48:00;22.10;;;12.90;;
67602;SDS011;54417;47.454;18.918;2023-02-28T23:53:26;21.33;;;12.50;;
67602;SDS011;54417;47.454;18.918;2023-02-28T23:58:53;19.27;;;11.07;;
